createdAt,value
2019-04-20T00:00:13.219Z,6.5
2019-04-20T00:05:14.846Z,6.5
2019-04-20T00:10:18.281Z,6.8
2019-04-20T00:15:21.720Z,6.8
2019-04-20T00:20:26.246Z,6.7
2019-04-20T00:25:41.564Z,6.6
2019-04-20T00:31:12.222Z,6.6
2019-04-20T00:36:28.971Z,6.4
2019-04-20T00:41:28.176Z,6.3
2019-04-20T00:46:36.835Z,6.5
2019-04-20T00:57:47.377Z,6.5
2019-04-20T01:03:09.418Z,6.3
2019-04-20T01:08:29.602Z,6.4
2019-04-20T01:13:30.170Z,6.3
2019-04-20T01:18:30.573Z,6.2
2019-04-20T01:23:38.158Z,6.1
2019-04-20T01:29:01.458Z,6.1
2019-04-20T01:34:30.904Z,6.1
2019-04-20T01:39:50.728Z,5.8
2019-04-20T01:44:57.061Z,5.8
2019-04-20T01:50:03.257Z,5.7
2019-04-20T01:55:27.439Z,5.5
2019-04-20T02:01:00.719Z,5.8
2019-04-20T02:06:13.443Z,5.7
2019-04-20T02:11:25.017Z,5.4
2019-04-20T02:16:37.140Z,5.6
2019-04-20T02:21:58.759Z,5.6
2019-04-20T02:27:19.597Z,5.6
2019-04-20T02:33:05.352Z,5.6
2019-04-20T02:45:39.751Z,5.8
2019-04-20T03:03:34.407Z,5.5
2019-04-20T03:09:02.268Z,5.6
2019-04-20T03:14:47.160Z,5.4
2019-04-20T03:20:35.887Z,5.6
2019-04-20T03:26:20.818Z,5.7
2019-04-20T03:32:24.710Z,5.7
2019-04-20T03:38:31.197Z,5.7
2019-04-20T03:43:53.983Z,5.6
2019-04-20T03:49:24.845Z,5.5
2019-04-20T03:55:15.981Z,5.3
2019-04-20T04:00:49.643Z,5.3
2019-04-20T04:06:24.042Z,5.6
2019-04-20T04:11:48.232Z,5.6
2019-04-20T04:17:05.848Z,5.6
2019-04-20T04:22:17.957Z,5.6
2019-04-20T04:27:56.892Z,5.8
2019-04-20T04:39:25.053Z,6.3
2019-04-20T04:44:58.143Z,6.4
2019-04-20T04:50:11.501Z,6.3
2019-04-20T04:55:25.543Z,6.7
2019-04-20T05:00:39.634Z,6.8
2019-04-20T05:06:00.293Z,7.1
2019-04-20T05:11:25.906Z,7.4
2019-04-20T05:16:44.915Z,7.5
2019-04-20T05:22:24.098Z,7.6
2019-04-20T05:28:05.127Z,7.5
2019-04-20T05:33:27.427Z,7.5
2019-04-20T05:39:21.164Z,7.9
2019-04-20T05:45:11.148Z,7.9
2019-04-20T05:50:48.085Z,7.9
2019-04-20T05:56:39.580Z,8.1
2019-04-20T06:02:31.460Z,8.4
2019-04-20T06:08:31.881Z,8.6
2019-04-20T06:14:05.738Z,8.7
2019-04-20T06:19:35.296Z,8.8
2019-04-20T06:25:38.744Z,9.1
2019-04-20T06:31:35.162Z,10.5
2019-04-20T06:37:28.905Z,11.1
2019-04-20T06:43:22.499Z,11.5
2019-04-20T06:49:22.203Z,11.4
2019-04-20T06:55:13.679Z,13
2019-04-20T07:01:10.382Z,11.6
2019-04-20T07:07:02.162Z,10.2
2019-04-20T07:12:49.195Z,9.9
2019-04-20T07:18:29.515Z,9.8
2019-04-20T07:24:23.557Z,11.7
2019-04-20T07:30:29.464Z,11.1
2019-04-20T07:36:11.648Z,11.2
2019-04-20T07:42:07.862Z,12.4
2019-04-20T07:48:05.998Z,12.4
2019-04-20T07:53:36.020Z,12.9
2019-04-20T07:59:24.056Z,13.9
2019-04-20T08:04:59.295Z,13.2
2019-04-20T08:10:33.519Z,12.9
2019-04-20T08:16:30.792Z,13.4
2019-04-20T08:22:33.219Z,13.3
2019-04-20T08:27:57.070Z,11.5
2019-04-20T08:33:13.055Z,11.3
2019-04-20T08:50:50.319Z,13.8
2019-04-20T08:56:31.586Z,13.5
2019-04-20T09:01:40.805Z,13.6
2019-04-20T09:06:51.808Z,12.9
2019-04-20T09:12:24.181Z,13
2019-04-20T09:17:49.319Z,11.6
2019-04-20T09:23:12.645Z,11.3
2019-04-20T09:28:39.305Z,13.1
2019-04-20T09:34:01.359Z,13.1
2019-04-20T09:39:30.234Z,14
2019-04-20T09:44:59.464Z,14.1
2019-04-20T09:50:19.310Z,14.5
2019-04-20T09:56:01.398Z,12.9
2019-04-20T10:01:30.820Z,13.2
2019-04-20T10:06:37.691Z,13.5
2019-04-20T10:11:42.355Z,14.6
2019-04-20T10:16:45.690Z,13.9
2019-04-20T10:21:45.633Z,12.7
2019-04-20T10:26:46.207Z,13.7
2019-04-20T10:31:50.373Z,13.7
2019-04-20T10:36:57.497Z,14.6
2019-04-20T10:42:01.075Z,13.9
2019-04-20T10:47:01.268Z,12.6
2019-04-20T10:52:01.923Z,13
2019-04-20T10:57:01.722Z,13.9
2019-04-20T11:02:01.867Z,14.4
2019-04-20T11:07:00.925Z,13
2019-04-20T11:11:59.745Z,12.3
2019-04-20T11:17:00.289Z,12.6
2019-04-20T11:21:59.195Z,12.4
2019-04-20T11:27:00.409Z,13.4
2019-04-20T11:32:00.882Z,13.5
2019-04-20T11:37:01.355Z,13.1
2019-04-20T11:42:01.540Z,13.7
2019-04-20T11:47:02.781Z,14.1
2019-04-20T11:52:01.936Z,13.7
2019-04-20T11:57:03.668Z,13.7
2019-04-20T12:02:05.539Z,12.5
2019-04-20T12:07:06.786Z,11.6
2019-04-20T12:12:18.256Z,12.6
2019-04-20T12:17:27.204Z,13
2019-04-20T12:22:28.246Z,13.5
2019-04-20T12:27:27.629Z,13
2019-04-20T12:32:34.109Z,11.9
2019-04-20T12:37:43.030Z,12.1
2019-04-20T12:42:43.151Z,11.9
2019-04-20T12:47:46.299Z,11.7
2019-04-20T12:52:50.294Z,12.1
2019-04-20T12:57:50.790Z,12.6
2019-04-20T13:02:51.816Z,12.9
2019-04-20T13:07:55.933Z,13.1
2019-04-20T13:12:58.523Z,12.4
2019-04-20T13:17:59.003Z,12.9
2019-04-20T13:22:59.981Z,12.8
2019-04-20T13:28:03.339Z,12.9
2019-04-20T13:33:05.919Z,12.4
2019-04-20T13:38:07.853Z,12.3
2019-04-20T13:43:08.238Z,12.5
2019-04-20T13:48:09.090Z,12.6
2019-04-20T13:53:09.582Z,12.5
2019-04-20T13:58:09.693Z,12.5
2019-04-20T14:03:10.744Z,12.1
2019-04-20T14:08:11.523Z,12.4
2019-04-20T14:13:15.496Z,12.3
2019-04-20T14:18:17.794Z,11.9
2019-04-20T14:23:18.911Z,11.7
2019-04-20T14:28:18.735Z,11.8
2019-04-20T14:33:18.925Z,11.6
2019-04-20T14:38:18.391Z,11.8
2019-04-20T14:43:19.280Z,11.6
2019-04-20T14:48:18.786Z,11.7
2019-04-20T14:53:17.978Z,11.3
2019-04-20T14:58:17.825Z,11.6
2019-04-20T15:03:17.422Z,11.4
2019-04-20T15:08:18.487Z,11.6
2019-04-20T15:13:18.847Z,11.3
2019-04-20T15:18:19.629Z,11.3
2019-04-20T15:23:19.414Z,11.3
2019-04-20T15:28:20.403Z,11.4
2019-04-20T15:33:21.012Z,11.3
2019-04-20T15:38:20.953Z,11.4
2019-04-20T15:43:24.362Z,11.2
2019-04-20T15:48:26.287Z,11.1
2019-04-20T15:53:27.026Z,10.7
2019-04-20T15:58:27.918Z,10.7
2019-04-20T16:03:27.599Z,10.6
2019-04-20T16:08:28.132Z,10.5
2019-04-20T16:13:35.749Z,10.1
2019-04-20T16:18:41.123Z,9.9
2019-04-20T16:23:40.845Z,9.9
2019-04-20T16:28:41.470Z,9.8
2019-04-20T16:33:42.190Z,9.7
2019-04-20T16:38:41.798Z,9.2
2019-04-20T16:43:44.627Z,9.3
2019-04-20T16:48:46.803Z,8.9
2019-04-20T16:53:47.902Z,8.9
2019-04-20T16:58:48.122Z,8.7
2019-04-20T17:04:03.796Z,8.6
2019-04-20T17:09:09.104Z,8.3
2019-04-20T17:14:10.646Z,8.1
2019-04-20T17:19:10.053Z,7.8
2019-04-20T17:24:09.340Z,7.2
2019-04-20T17:29:10.341Z,6.5
2019-04-20T17:34:26.867Z,6.4
2019-04-20T17:40:10.629Z,6.1
2019-04-20T17:45:43.015Z,5.6
2019-04-20T17:51:16.614Z,5.7
2019-04-20T17:56:46.918Z,5.6
2019-04-20T18:02:00.825Z,5.1
2019-04-20T18:07:34.909Z,5
2019-04-20T18:13:11.873Z,4.8
2019-04-20T18:18:34.938Z,4.5
2019-04-20T18:23:50.258Z,4.5
2019-04-20T18:29:13.239Z,4
2019-04-20T18:34:36.230Z,4.2
2019-04-20T18:39:41.281Z,3.9
2019-04-20T18:45:08.827Z,3.7
2019-04-20T18:50:35.251Z,3.7
2019-04-20T18:55:43.635Z,3.4
2019-04-20T19:00:53.665Z,3.4
2019-04-20T19:05:55.813Z,3
2019-04-20T19:11:03.164Z,3.2
2019-04-20T19:16:19.586Z,3.1
2019-04-20T19:21:29.106Z,3
2019-04-20T19:26:28.578Z,3
2019-04-20T19:31:44.639Z,2.7
2019-04-20T19:37:15.464Z,2.9
2019-04-20T19:42:38.870Z,2.8
2019-04-20T19:48:11.767Z,2.4
2019-04-20T19:53:41.364Z,2.6
2019-04-20T19:59:19.337Z,2.5
2019-04-20T20:04:32.051Z,2.2
2019-04-20T20:09:52.779Z,2.1
2019-04-20T20:14:57.457Z,2.1
2019-04-20T20:20:35.465Z,2.2
2019-04-20T20:25:58.825Z,2.4
2019-04-20T20:31:12.216Z,2.1
2019-04-20T20:36:38.151Z,2
2019-04-20T20:42:01.222Z,2.1
2019-04-20T20:47:41.005Z,2
2019-04-20T20:53:14.092Z,1.8
2019-04-20T20:58:41.779Z,2
2019-04-20T21:03:56.675Z,1.7
2019-04-20T21:08:59.848Z,1.6
2019-04-20T21:14:01.469Z,1.7
2019-04-20T21:19:17.026Z,1.5
2019-04-20T21:24:42.024Z,1.5
2019-04-20T21:29:51.172Z,1.4
2019-04-20T21:35:01.162Z,1.5
2019-04-20T21:40:16.576Z,1.6
2019-04-20T21:45:31.062Z,1.3
2019-04-20T21:50:56.405Z,1.1
2019-04-20T21:56:12.348Z,1.3
2019-04-20T22:01:22.043Z,1.2
2019-04-20T22:06:30.081Z,1.2
2019-04-20T22:11:29.609Z,1.1
2019-04-20T22:16:35.209Z,1.1
2019-04-20T22:21:52.999Z,0.9
2019-04-20T22:27:14.333Z,1.2
2019-04-20T22:32:22.502Z,0.9
2019-04-20T22:37:28.043Z,0.9
2019-04-20T22:42:30.249Z,1
2019-04-20T22:47:40.758Z,0.9
2019-04-20T22:52:52.101Z,0.9
2019-04-20T22:58:23.275Z,0.8
2019-04-20T23:03:30.549Z,0.8
2019-04-20T23:08:30.680Z,0.5
2019-04-20T23:13:36.606Z,0.5
2019-04-20T23:18:40.623Z,0.4
2019-04-20T23:23:41.556Z,0.4
2019-04-20T23:28:48.041Z,0.1
2019-04-20T23:33:53.741Z,0.4
2019-04-20T23:38:57.531Z,0.1
2019-04-20T23:44:06.054Z,0.3
2019-04-20T23:49:15.740Z,0.3
2019-04-20T23:54:26.094Z,0.5
2019-04-20T23:59:37.437Z,0
